Weather History for KJYR - October, 2013

Change the Weather History Date:

Monday, October 28, 2013

  Actual Average Record
Temperature  
Mean Temperature 44 °F -  
Max Temperature 50 °F 58 °F 82 °F (2004)
Min Temperature 37 °F 36 °F 21 °F (1952)
Degree Days  
Heating Degree Days 22    
Moisture  
Dew Point 36 °F    
Average Humidity 71    
Maximum Humidity 87    
Minimum Humidity 58    
Precipitation  
Precipitation 0.00 in - - ()
Sea Level Pressure  
Sea Level Pressure 30.08 in    
Wind  
Wind Speed 14 mph (ENE)    
Max Wind Speed 23 mph    
Max Gust Speed 28 mph    
Visibility 10 miles    
Events Rain , Thunderstorm    
Averages and records for this station are not official NWS values.
T = Trace of Precipitation, MM = Missing Value Source: NWS Daily Summary

Daily Weather History Graph

Daily Weather History Graph

Search for Another Location

Airport or City:

Trip Planner

Search our weather history database for the weather conditions in past years. The results will help you decide how hot, cold, wet, or windy it might be!

Date:

Astronomy

Oct. 28, 2013 Rise Set
Actual Time 7:56 AM CDT 6:31 PM CDT
Civil Twilight 7:28 AM CDT 6:59 PM CDT
Nautical Twilight 6:56 AM CDT 7:31 PM CDT
Astronomical Twilight 6:24 AM CDT 8:03 PM CDT
Moon 1:48 AM CDT (10/28) 3:16 PM CDT (10/28)
Length of Visible Light 11h 30m
Length of Day
10h 34m
Waning Crescent, 34% of the Moon is Illuminated
Oct 28
Waning Crescent
Nov 3
New
Nov 9
First Quarter
Nov 17
Full
Nov 25
Last Quarter

Hourly Weather History & Observations

Time (CDT) Temp. Windchill Dew Point Humidity Pressure Visibility Wind Dir Wind Speed Gust Speed Precip Events Conditions
12:15 AM 46.4 °F 41.1 °F 37.4 °F 71% 29.95 in 10.0 mi NNE 11.5 mph - N/A   Clear
12:35 AM 46.4 °F 41.1 °F 37.4 °F 71% 29.96 in 10.0 mi NE 11.5 mph - N/A   Clear
12:55 AM 46.4 °F 40.7 °F 37.4 °F 71% 29.95 in 10.0 mi NNE 12.7 mph - N/A   Unknown
1:15 AM 44.6 °F 39.7 °F 37.4 °F 76% 29.97 in 10.0 mi NE 9.2 mph - N/A   Unknown
1:35 AM 44.6 °F 39.2 °F 37.4 °F 76% 29.97 in 10.0 mi NE 10.4 mph - N/A   Unknown
1:55 AM 44.6 °F 39.7 °F 35.6 °F 71% 29.97 in 10.0 mi NE 9.2 mph - N/A   Unknown
2:15 AM 42.8 °F 36.6 °F 35.6 °F 76% 29.98 in 10.0 mi NNE 11.5 mph - N/A   Unknown
2:35 AM 42.8 °F 37.0 °F 35.6 °F 76% 29.98 in 10.0 mi NE 10.4 mph - N/A   Unknown
2:55 AM 44.6 °F 38.4 °F 35.6 °F 71% 29.98 in 10.0 mi NE 12.7 mph - N/A   Unknown
3:15 AM 44.6 °F 38.4 °F 35.6 °F 71% 29.98 in 10.0 mi NE 12.7 mph - N/A   Clear
3:35 AM 42.8 °F 36.2 °F 35.6 °F 76% 29.98 in 10.0 mi NE 12.7 mph - N/A   Clear
3:55 AM 41.0 °F 34.3 °F 35.6 °F 81% 29.98 in 10.0 mi NE 11.5 mph - N/A   Clear
4:15 AM 41.0 °F 33.9 °F 35.6 °F 81% 29.99 in 10.0 mi NE 12.7 mph - N/A   Clear
4:35 AM 41.0 °F 34.3 °F 35.6 °F 81% 29.99 in 10.0 mi NE 11.5 mph - N/A   Clear
4:55 AM 41.0 °F 34.3 °F 35.6 °F 81% 30.00 in 10.0 mi NE 11.5 mph - N/A   Clear
5:15 AM 41.0 °F 33.9 °F 35.6 °F 81% 30.01 in 10.0 mi NE 12.7 mph - N/A   Clear
5:35 AM 41.0 °F 33.9 °F 35.6 °F 81% 30.02 in 10.0 mi NE 12.7 mph - N/A   Unknown
5:55 AM 39.2 °F 31.6 °F 35.6 °F 87% 30.03 in 10.0 mi NE 12.7 mph - N/A   Unknown
6:15 AM 39.2 °F 31.6 °F 33.8 °F 81% 30.05 in 10.0 mi NE 12.7 mph - N/A   Unknown
6:35 AM 39.2 °F 30.8 °F 33.8 °F 81% 30.05 in 10.0 mi NE 15.0 mph - N/A   Unknown
6:55 AM 39.2 °F 30.8 °F 33.8 °F 81% 30.06 in 10.0 mi NE 15.0 mph - N/A   Unknown
7:15 AM 37.4 °F 28.5 °F 33.8 °F 87% 30.07 in 10.0 mi NE 15.0 mph - N/A   Unknown
7:35 AM 37.4 °F 28.2 °F 33.8 °F 87% 30.07 in 10.0 mi NE 16.1 mph 24.2 mph N/A   Unknown
7:55 AM 37.4 °F 27.8 °F 32.0 °F 81% 30.07 in 10.0 mi NE 17.3 mph 21.9 mph N/A   Clear
8:15 AM 37.4 °F 27.2 °F 32.0 °F 81% 30.08 in 10.0 mi NE 19.6 mph 23.0 mph N/A   Clear
8:35 AM 37.4 °F 28.2 °F 32.0 °F 81% 30.10 in 10.0 mi NE 16.1 mph 21.9 mph N/A   Clear
8:55 AM 37.4 °F 28.5 °F 32.0 °F 81% 30.11 in 10.0 mi NE 15.0 mph - N/A   Clear
9:15 AM 39.2 °F 30.2 °F 32.0 °F 75% 30.11 in 10.0 mi ENE 17.3 mph 21.9 mph N/A   Clear
9:35 AM 39.2 °F 29.3 °F 32.0 °F 75% 30.12 in 10.0 mi ENE 20.7 mph 25.3 mph N/A   Clear
9:55 AM 41.0 °F 32.5 °F 33.8 °F 76% 30.13 in 10.0 mi ENE 17.3 mph - N/A   Clear
10:15 AM 41.0 °F 31.6 °F 33.8 °F 76% 30.14 in 10.0 mi ENE 20.7 mph 25.3 mph N/A   Clear
10:35 AM 41.0 °F 31.1 °F 33.8 °F 76% 30.13 in 10.0 mi ENE 23.0 mph 27.6 mph N/A   Clear
10:55 AM 42.8 °F 34.5 °F 35.6 °F 76% 30.14 in 10.0 mi ENE 18.4 mph 25.3 mph N/A   Clear
11:15 AM 44.6 °F 37.2 °F 33.8 °F 66% 30.15 in 10.0 mi NE 17.3 mph - N/A   Clear
11:35 AM 46.4 °F 39.5 °F 35.6 °F 66% 30.16 in 10.0 mi ENE 17.3 mph 24.2 mph N/A   Clear
11:55 AM 46.4 °F 39.2 °F 35.6 °F 66% 30.15 in 10.0 mi ENE 18.4 mph 25.3 mph N/A   Clear
12:15 PM 48.2 °F - 35.6 °F 62% 30.15 in 10.0 mi ENE 18.4 mph 21.9 mph N/A   Clear
12:35 PM 48.2 °F - 35.6 °F 62% 30.15 in 10.0 mi East 18.4 mph 21.9 mph N/A   Clear
12:55 PM 48.2 °F - 35.6 °F 62% 30.15 in 10.0 mi East 18.4 mph - N/A   Clear
1:15 PM 48.2 °F - 35.6 °F 62% 30.13 in 10.0 mi ENE 18.4 mph 23.0 mph N/A   Clear
1:35 PM 48.2 °F - 35.6 °F 62% 30.11 in 10.0 mi East 17.3 mph 24.2 mph N/A   Clear
1:55 PM 48.2 °F - 35.6 °F 62% 30.10 in 10.0 mi ENE 18.4 mph 25.3 mph N/A   Clear
2:15 PM 50.0 °F - 35.6 °F 58% 30.10 in 10.0 mi ENE 20.7 mph - N/A   Clear
2:35 PM 48.2 °F - 35.6 °F 62% 30.09 in 10.0 mi ENE 20.7 mph 26.5 mph N/A   Clear
3:15 PM 50.0 °F - 35.6 °F 58% 30.09 in 10.0 mi ENE 20.7 mph 24.2 mph N/A   Clear
3:35 PM 50.0 °F - 35.6 °F 58% 30.09 in 10.0 mi East 19.6 mph - N/A   Clear
3:55 PM 50.0 °F - 35.6 °F 58% 30.09 in 10.0 mi East 17.3 mph 21.9 mph N/A   Partly Cloudy
4:15 PM 50.0 °F - 35.6 °F 58% 30.10 in 10.0 mi East 18.4 mph 24.2 mph N/A   Scattered Clouds
4:35 PM 50.0 °F - 35.6 °F 58% 30.10 in 10.0 mi East 18.4 mph 24.2 mph N/A   Mostly Cloudy
4:55 PM 50.0 °F - 35.6 °F 58% 30.10 in 10.0 mi East 18.4 mph 24.2 mph N/A   Overcast
5:15 PM 50.0 °F - 35.6 °F 58% 30.10 in 10.0 mi ENE 13.8 mph 19.6 mph N/A   Mostly Cloudy
5:35 PM 50.0 °F - 35.6 °F 58% 30.09 in 10.0 mi ENE 16.1 mph 23.0 mph N/A   Mostly Cloudy
5:55 PM 48.2 °F - 35.6 °F 62% 30.09 in 10.0 mi ENE 12.7 mph - N/A   Partly Cloudy
6:15 PM 48.2 °F - 37.4 °F 66% 30.10 in 10.0 mi ENE 11.5 mph 18.4 mph N/A   Mostly Cloudy
6:35 PM 48.2 °F - 35.6 °F 62% 30.10 in 10.0 mi ENE 11.5 mph - N/A   Overcast
6:55 PM 48.2 °F - 35.6 °F 62% 30.11 in 10.0 mi ENE 13.8 mph - N/A   Overcast
7:15 PM 48.2 °F - 35.6 °F 62% 30.11 in 10.0 mi ENE 15.0 mph 20.7 mph N/A   Overcast
7:35 PM 48.2 °F - 35.6 °F 62% 30.11 in 10.0 mi ENE 13.8 mph 18.4 mph N/A   Overcast
7:55 PM 46.4 °F 41.1 °F 35.6 °F 66% 30.11 in 10.0 mi ENE 11.5 mph - N/A   Mostly Cloudy
8:15 PM 46.4 °F 41.1 °F 37.4 °F 71% 30.12 in 10.0 mi ENE 11.5 mph - N/A   Overcast
8:35 PM 46.4 °F 41.5 °F 37.4 °F 71% 30.12 in 10.0 mi ENE 10.4 mph - N/A Rain , Thunderstorm Light Rain
8:55 PM 46.4 °F 41.5 °F 37.4 °F 71% 30.12 in 10.0 mi ENE 10.4 mph - N/A   Overcast
9:15 PM 46.4 °F 40.1 °F 37.4 °F 71% 30.13 in 10.0 mi ENE 15.0 mph - N/A   Overcast
9:35 PM 46.4 °F 41.5 °F 37.4 °F 71% 30.14 in 10.0 mi ENE 10.4 mph - N/A   Overcast
9:55 PM 46.4 °F 40.7 °F 37.4 °F 71% 30.14 in 10.0 mi ENE 12.7 mph - N/A Thunderstorm Overcast
10:15 PM 46.4 °F 41.5 °F 37.4 °F 71% 30.14 in 10.0 mi ENE 10.4 mph - N/A   Overcast
10:35 PM 46.4 °F 41.5 °F 37.4 °F 71% 30.14 in 10.0 mi ENE 10.4 mph - N/A   Overcast
10:55 PM 46.4 °F 41.1 °F 37.4 °F 71% 30.14 in 10.0 mi NE 11.5 mph - N/A   Overcast
11:15 PM 44.6 °F 37.8 °F 39.2 °F 81% 30.14 in 10.0 mi ENE 15.0 mph - N/A   Overcast
11:35 PM 44.6 °F 37.4 °F 39.2 °F 81% 30.13 in 10.0 mi ENE 16.1 mph - N/A Rain Light Rain
11:55 PM 44.6 °F 37.4 °F 39.2 °F 81% 30.13 in 10.0 mi ENE 16.1 mph - N/A   Overcast